createdAt,value
2022-10-11T00:01:39.863Z,17.30
2022-10-11T00:04:11.666Z,17.40
2022-10-11T00:06:43.991Z,17.40
2022-10-11T00:09:16.072Z,19.20
2022-10-11T00:11:47.727Z,12.10
2022-10-11T00:14:19.463Z,17.20
2022-10-11T00:16:51.216Z,11.70
2022-10-11T00:19:23.853Z,18.00
2022-10-11T00:21:56.061Z,17.30
2022-10-11T00:24:27.809Z,17.70
2022-10-11T00:26:59.696Z,17.10
2022-10-11T00:29:31.446Z,16.70
2022-10-11T00:32:04.606Z,17.80
2022-10-11T00:34:37.604Z,17.00
2022-10-11T00:39:39.486Z,17.90
2022-10-11T00:42:15.368Z,16.00
2022-10-11T00:44:49.706Z,15.90
2022-10-11T00:47:24.449Z,15.90
2022-10-11T00:49:59.039Z,15.90
2022-10-11T00:52:35.909Z,15.70
2022-10-11T00:55:10.177Z,15.80
2022-10-11T00:57:46.145Z,16.40
2022-10-11T01:00:18.871Z,15.30
2022-10-11T01:05:30.302Z,14.60
2022-10-11T01:08:03.571Z,14.40
2022-10-11T01:10:35.875Z,15.30
2022-10-11T01:13:19.249Z,9.60
2022-10-11T01:15:56.089Z,14.20
2022-10-11T01:18:36.849Z,14.30
2022-10-11T01:21:17.630Z,15.00
2022-10-11T01:24:34.434Z,14.10
2022-10-11T01:27:30.950Z,14.60
2022-10-11T01:30:15.796Z,14.00
2022-10-11T01:32:55.403Z,13.70
2022-10-11T01:35:34.726Z,14.10
2022-10-11T01:38:14.211Z,14.50
2022-10-11T01:40:52.187Z,12.80
2022-10-11T01:43:27.357Z,12.70
2022-10-11T01:46:02.100Z,14.40
2022-10-11T01:48:34.151Z,12.60
2022-10-11T01:51:06.157Z,13.90
2022-10-11T01:53:57.381Z,14.90
2022-10-11T01:56:53.287Z,14.90
2022-10-11T01:59:40.566Z,11.80
2022-10-11T02:02:28.798Z,12.40
2022-10-11T02:05:09.631Z,14.00
2022-10-11T02:07:46.399Z,11.90
2022-10-11T02:10:27.436Z,12.50
2022-10-11T02:13:03.111Z,12.20
2022-10-11T02:15:39.579Z,12.40
2022-10-11T02:18:16.756Z,11.70
2022-10-11T02:20:50.074Z,13.10
2022-10-11T02:23:27.803Z,12.00
2022-10-11T02:26:01.482Z,12.30
2022-10-11T02:28:36.744Z,12.40
2022-10-11T02:31:12.738Z,10.80
2022-10-11T02:33:49.756Z,11.60
2022-10-11T02:36:27.816Z,13.60
2022-10-11T02:39:07.809Z,11.20
2022-10-11T02:41:43.163Z,11.50
2022-10-11T02:44:19.995Z,11.20
2022-10-11T02:46:53.209Z,9.90
2022-10-11T02:49:25.688Z,10.40
2022-10-11T02:51:59.802Z,10.10
2022-10-11T02:54:31.672Z,9.80
2022-10-11T02:57:03.309Z,11.20
2022-10-11T02:59:34.979Z,9.80
2022-10-11T03:02:06.799Z,10.90
2022-10-11T03:04:38.496Z,10.70
2022-10-11T03:07:10.206Z,10.50
2022-10-11T03:09:42.016Z,11.60
2022-10-11T03:12:13.707Z,10.80
2022-10-11T03:14:46.015Z,10.50
2022-10-11T03:17:35.659Z,9.80
2022-10-11T03:20:10.629Z,10.30
2022-10-11T03:22:42.333Z,10.10
2022-10-11T03:25:14.560Z,9.60
2022-10-11T03:27:46.243Z,9.20
2022-10-11T03:30:18.607Z,9.30
2022-10-11T03:32:50.815Z,9.00
2022-10-11T03:35:22.534Z,9.30
2022-10-11T03:37:54.249Z,8.60
2022-10-11T03:40:25.934Z,8.50
2022-10-11T03:42:59.042Z,7.70
2022-10-11T03:45:30.723Z,8.10
2022-10-11T03:48:03.183Z,7.20
2022-10-11T03:50:35.351Z,7.00
2022-10-11T03:53:08.402Z,6.60
2022-10-11T03:55:42.347Z,6.70
2022-10-11T03:58:14.805Z,6.20
2022-10-11T04:03:19.808Z,5.80
2022-10-11T04:05:52.553Z,7.00
2022-10-11T04:08:24.222Z,6.50
2022-10-11T04:10:55.965Z,6.40
2022-10-11T04:13:27.708Z,5.30
2022-10-11T04:15:59.383Z,5.50
2022-10-11T04:18:31.606Z,6.40
2022-10-11T04:21:03.253Z,5.30
2022-10-11T04:23:35.687Z,5.70
2022-10-11T04:26:09.003Z,5.10
2022-10-11T04:28:41.378Z,4.80
2022-10-11T04:31:13.598Z,4.60
2022-10-11T04:33:45.328Z,5.00
2022-10-11T04:36:17.311Z,4.80
2022-10-11T04:38:48.955Z,4.40
2022-10-11T04:41:20.661Z,4.10
2022-10-11T04:43:52.245Z,5.50
2022-10-11T04:46:24.023Z,4.80
2022-10-11T04:48:56.023Z,5.10
2022-10-11T04:51:28.784Z,3.40
2022-10-11T04:54:01.164Z,4.80
2022-10-11T04:56:33.029Z,4.00
2022-10-11T04:59:04.729Z,5.70
2022-10-11T05:01:36.526Z,5.40
2022-10-11T05:04:08.463Z,4.80
2022-10-11T05:06:40.214Z,5.20
2022-10-11T05:09:12.382Z,5.80
2022-10-11T05:11:44.063Z,5.20
2022-10-11T05:14:16.169Z,6.20
2022-10-11T05:16:50.998Z,4.20
2022-10-11T05:19:23.957Z,5.70
2022-10-11T05:24:26.805Z,5.40
2022-10-11T05:27:03.012Z,5.00
2022-10-11T05:29:35.400Z,5.30
2022-10-11T05:32:07.674Z,4.70
2022-10-11T05:34:39.374Z,5.50
2022-10-11T05:37:10.969Z,4.90
2022-10-11T05:39:42.585Z,4.60
2022-10-11T05:42:14.736Z,5.00
2022-10-11T05:44:48.043Z,5.20
2022-10-11T05:47:21.320Z,5.20
2022-10-11T05:49:53.081Z,4.30
2022-10-11T05:52:24.744Z,4.50
2022-10-11T05:54:56.507Z,4.70
2022-10-11T05:57:28.243Z,3.90
2022-10-11T06:00:00.143Z,4.10
2022-10-11T06:02:32.066Z,5.40
2022-10-11T06:05:03.978Z,5.30
2022-10-11T06:07:38.447Z,4.00
2022-10-11T06:10:11.389Z,4.20
2022-10-11T06:12:44.338Z,4.10
2022-10-11T06:15:16.071Z,4.40
2022-10-11T06:17:49.023Z,2.50
2022-10-11T06:20:20.986Z,4.70
2022-10-11T06:22:52.694Z,4.90
2022-10-11T06:25:24.643Z,4.10
2022-10-11T06:27:56.351Z,4.80
2022-10-11T06:30:28.178Z,5.00
2022-10-11T06:33:03.873Z,3.90
2022-10-11T06:35:36.642Z,4.40
2022-10-11T06:38:08.331Z,4.50
2022-10-11T06:40:40.127Z,4.50
2022-10-11T06:43:11.955Z,6.90
2022-10-11T06:45:43.602Z,2.80
2022-10-11T06:48:15.317Z,4.20
2022-10-11T06:50:59.552Z,3.10
2022-10-11T06:53:32.341Z,4.90
2022-10-11T06:56:09.891Z,4.70
2022-10-11T06:58:42.190Z,3.60
2022-10-11T07:01:18.607Z,3.80
2022-10-11T07:03:51.180Z,3.50
2022-10-11T07:06:25.069Z,4.00
2022-10-11T07:08:57.422Z,4.00
2022-10-11T07:11:30.420Z,5.10
2022-10-11T07:14:07.381Z,4.40
2022-10-11T07:16:39.440Z,4.90
2022-10-11T07:19:11.909Z,3.10
2022-10-11T07:21:43.738Z,5.10
2022-10-11T07:24:15.559Z,5.40
2022-10-11T07:26:47.451Z,4.50
2022-10-11T07:29:19.324Z,4.80
2022-10-11T07:31:51.755Z,3.30
2022-10-11T07:34:23.910Z,5.30
2022-10-11T07:36:55.652Z,5.20
2022-10-11T07:39:27.802Z,4.20
2022-10-11T07:41:59.633Z,4.50
2022-10-11T07:44:31.511Z,6.60
2022-10-11T07:47:06.649Z,5.90
2022-10-11T07:49:40.830Z,5.00
2022-10-11T07:52:12.558Z,6.10
2022-10-11T07:54:44.334Z,6.40
2022-10-11T07:57:16.151Z,5.50
2022-10-11T07:59:50.251Z,6.40
2022-10-11T08:02:22.340Z,4.90
2022-10-11T08:04:54.041Z,7.70
2022-10-11T08:07:25.763Z,6.20
2022-10-11T08:09:57.808Z,5.10
2022-10-11T08:12:29.826Z,5.30
2022-10-11T08:15:02.666Z,5.30
2022-10-11T08:17:34.464Z,5.10
2022-10-11T08:20:07.047Z,5.20
2022-10-11T08:22:39.235Z,5.70
2022-10-11T08:25:11.730Z,5.60
2022-10-11T08:27:43.605Z,6.10
2022-10-11T08:30:16.389Z,4.70
2022-10-11T08:35:18.836Z,5.90
2022-10-11T08:37:50.981Z,6.70
2022-10-11T08:40:25.479Z,7.60
2022-10-11T08:43:04.077Z,6.60
2022-10-11T08:45:40.546Z,6.50
2022-10-11T08:48:18.743Z,6.80
2022-10-11T08:50:53.749Z,5.40
2022-10-11T08:53:37.070Z,6.20
2022-10-11T08:56:13.214Z,6.30
2022-10-11T08:58:52.644Z,6.10
2022-10-11T09:01:27.232Z,6.30
2022-10-11T09:04:00.147Z,5.20
2022-10-11T09:06:40.686Z,5.70
2022-10-11T09:09:27.167Z,4.80
2022-10-11T09:12:11.207Z,5.30
2022-10-11T09:15:00.717Z,5.40
2022-10-11T09:17:48.352Z,5.00
2022-10-11T09:20:32.282Z,5.50
2022-10-11T09:23:12.791Z,4.50
2022-10-11T09:25:50.710Z,5.00
2022-10-11T09:28:34.487Z,6.20
2022-10-11T09:31:10.344Z,4.30
2022-10-11T09:33:46.775Z,4.50
2022-10-11T09:36:26.773Z,4.50
2022-10-11T09:39:06.912Z,4.10
2022-10-11T09:41:46.497Z,4.00
2022-10-11T09:44:23.576Z,4.20
2022-10-11T09:46:57.426Z,3.70
2022-10-11T09:49:34.527Z,3.00
2022-10-11T09:52:16.063Z,3.80
2022-10-11T09:54:50.071Z,2.70
2022-10-11T09:57:24.800Z,2.90
2022-10-11T10:00:06.676Z,3.40
2022-10-11T10:02:46.950Z,2.50
2022-10-11T10:05:24.417Z,3.70
2022-10-11T10:08:08.074Z,2.50
2022-10-11T10:10:43.363Z,3.20
2022-10-11T10:13:24.410Z,2.40
2022-10-11T10:15:59.548Z,3.60
2022-10-11T10:18:37.214Z,2.30
2022-10-11T10:21:14.067Z,2.80
2022-10-11T10:23:46.179Z,2.40
2022-10-11T10:26:21.204Z,3.40
2022-10-11T10:29:05.958Z,2.20
2022-10-11T10:32:02.048Z,2.30
2022-10-11T10:34:36.049Z,1.80
2022-10-11T10:37:16.825Z,2.00
2022-10-11T10:39:54.542Z,2.40
2022-10-11T10:42:26.465Z,2.70
2022-10-11T10:45:00.145Z,3.30
2022-10-11T10:47:53.646Z,2.20
2022-10-11T10:50:33.973Z,4.10
2022-10-11T10:53:20.219Z,3.30
2022-10-11T10:55:59.399Z,2.40
2022-10-11T10:58:51.204Z,1.90
2022-10-11T11:01:27.607Z,2.30
2022-10-11T11:04:08.901Z,2.60
2022-10-11T11:06:50.816Z,1.90
2022-10-11T11:09:37.561Z,2.00
2022-10-11T11:12:22.886Z,1.80
2022-10-11T11:15:02.959Z,1.40
2022-10-11T11:17:48.210Z,2.90
2022-10-11T11:20:30.379Z,2.30
2022-10-11T11:23:10.051Z,1.00
2022-10-11T11:25:49.606Z,1.90
2022-10-11T11:28:49.021Z,2.10
2022-10-11T11:31:41.531Z,1.70
2022-10-11T11:34:21.200Z,1.90
2022-10-11T11:36:57.994Z,1.70
2022-10-11T11:39:36.373Z,2.10
2022-10-11T11:42:12.999Z,2.80
2022-10-11T11:44:47.928Z,3.00
2022-10-11T11:47:25.667Z,2.50
2022-10-11T11:50:00.795Z,2.00
2022-10-11T11:52:38.353Z,1.50
2022-10-11T11:55:15.415Z,1.60
2022-10-11T11:58:01.038Z,2.30
2022-10-11T12:00:43.747Z,1.50
2022-10-11T12:03:25.214Z,2.80
2022-10-11T12:06:35.914Z,4.00
2022-10-11T12:09:22.794Z,2.80
2022-10-11T12:11:58.669Z,1.80
2022-10-11T12:14:39.504Z,2.20
2022-10-11T12:17:15.751Z,2.40
2022-10-11T12:20:14.562Z,1.80
2022-10-11T12:23:00.251Z,2.20
2022-10-11T12:25:42.085Z,2.20
2022-10-11T12:28:49.684Z,2.30
2022-10-11T12:31:26.035Z,2.20
2022-10-11T12:34:19.607Z,2.40
2022-10-11T12:36:52.147Z,1.80
2022-10-11T12:39:54.486Z,1.90
2022-10-11T12:42:30.105Z,2.10
2022-10-11T12:45:32.597Z,2.10
2022-10-11T12:48:41.170Z,2.30
2022-10-11T12:51:38.061Z,2.70
2022-10-11T12:54:34.601Z,5.60
2022-10-11T12:57:47.155Z,1.90
2022-10-11T13:00:28.986Z,1.70
2022-10-11T13:03:05.808Z,1.60
2022-10-11T13:05:49.691Z,2.10
2022-10-11T13:08:29.901Z,3.30
2022-10-11T13:11:07.464Z,2.30
2022-10-11T13:13:45.031Z,2.10
2022-10-11T13:16:20.959Z,2.60
2022-10-11T13:18:58.518Z,1.90
2022-10-11T13:21:36.106Z,2.40
2022-10-11T13:24:14.315Z,2.30
2022-10-11T13:26:48.140Z,2.60
2022-10-11T13:29:30.060Z,3.00
2022-10-11T13:32:04.556Z,2.10
2022-10-11T13:34:40.654Z,2.00
2022-10-11T13:37:20.034Z,2.30
2022-10-11T13:39:54.955Z,1.90
2022-10-11T13:42:31.860Z,2.50
2022-10-11T13:45:04.698Z,2.10
2022-10-11T13:47:38.112Z,2.90
2022-10-11T13:50:26.474Z,2.20
2022-10-11T13:53:01.569Z,2.10
2022-10-11T13:55:37.817Z,2.30
2022-10-11T13:58:18.876Z,2.10
2022-10-11T14:00:58.979Z,1.80
2022-10-11T14:03:40.611Z,2.70
2022-10-11T14:06:12.609Z,2.20
2022-10-11T14:08:49.021Z,2.40
2022-10-11T14:11:36.193Z,2.40
2022-10-11T14:14:31.478Z,2.70
2022-10-11T14:17:15.628Z,2.30
2022-10-11T14:19:49.805Z,3.40
2022-10-11T14:22:21.622Z,2.40
2022-10-11T14:24:53.364Z,2.60
2022-10-11T14:27:28.955Z,2.40
2022-10-11T14:30:26.132Z,2.10
2022-10-11T14:32:55.561Z,2.80
2022-10-11T14:35:34.238Z,2.80
2022-10-11T14:38:06.036Z,2.00
2022-10-11T14:40:39.781Z,2.50
2022-10-11T14:43:12.149Z,2.10
2022-10-11T14:45:44.154Z,2.20
2022-10-11T14:48:26.676Z,2.50
2022-10-11T14:51:10.773Z,3.30
2022-10-11T14:53:46.362Z,5.90
2022-10-11T14:56:21.547Z,2.10
2022-10-11T14:58:53.879Z,3.50
2022-10-11T15:01:26.480Z,2.40
2022-10-11T15:03:58.212Z,2.90
2022-10-11T15:06:34.294Z,3.80
2022-10-11T15:09:07.983Z,2.90
2022-10-11T15:11:41.003Z,2.60
2022-10-11T15:14:13.557Z,3.40
2022-10-11T15:16:45.813Z,2.90
2022-10-11T15:19:20.686Z,3.00
2022-10-11T15:21:53.251Z,3.20
2022-10-11T15:24:26.382Z,2.20
2022-10-11T15:26:58.979Z,2.30
2022-10-11T15:29:31.222Z,3.70
2022-10-11T15:32:03.371Z,4.60
2022-10-11T15:34:35.145Z,8.60
2022-10-11T15:37:07.001Z,9.70
2022-10-11T15:39:39.119Z,8.70
2022-10-11T15:42:13.895Z,5.50
2022-10-11T15:44:48.307Z,7.10
2022-10-11T15:47:22.385Z,6.70
2022-10-11T15:49:55.305Z,5.70
2022-10-11T15:52:27.772Z,6.40
2022-10-11T15:54:59.542Z,7.40
2022-10-11T15:57:31.654Z,6.70
2022-10-11T16:00:04.301Z,7.70
2022-10-11T16:02:44.115Z,6.80
2022-10-11T16:05:22.254Z,6.20
2022-10-11T16:07:55.223Z,4.60
2022-10-11T16:10:27.557Z,4.80
2022-10-11T16:13:00.041Z,4.50
2022-10-11T16:15:32.475Z,10.10
2022-10-11T16:18:04.228Z,9.50
2022-10-11T16:20:38.673Z,9.30
2022-10-11T16:23:11.477Z,10.40
2022-10-11T16:28:13.410Z,7.00
2022-10-11T16:30:45.474Z,4.70
2022-10-11T16:33:17.894Z,6.60
2022-10-11T16:35:50.648Z,6.80
2022-10-11T16:38:22.589Z,6.80
2022-10-11T16:40:54.205Z,6.50
2022-10-11T16:43:26.082Z,7.00
2022-10-11T16:46:00.874Z,6.40
2022-10-11T16:48:33.529Z,8.40
2022-10-11T16:51:10.131Z,6.80
2022-10-11T16:53:42.093Z,7.80
2022-10-11T16:56:14.733Z,7.30
2022-10-11T17:01:17.680Z,7.80
2022-10-11T17:03:51.222Z,6.80
2022-10-11T17:06:26.151Z,7.40
2022-10-11T17:08:59.861Z,7.30
2022-10-11T17:11:32.145Z,7.00
2022-10-11T17:14:05.133Z,7.80
2022-10-11T17:16:38.892Z,6.90
2022-10-11T17:19:15.508Z,7.80
2022-10-11T17:21:48.343Z,9.40
2022-10-11T17:24:21.365Z,9.50
2022-10-11T17:26:53.977Z,10.80
2022-10-11T17:29:26.621Z,10.40
2022-10-11T17:31:58.677Z,11.90
2022-10-11T17:34:31.216Z,11.60
2022-10-11T17:37:03.668Z,11.50
2022-10-11T17:39:37.015Z,11.50
2022-10-11T17:42:09.999Z,11.20
2022-10-11T17:44:43.258Z,13.40
2022-10-11T17:47:16.331Z,13.60
2022-10-11T17:49:48.993Z,13.20
2022-10-11T17:52:21.468Z,14.00
2022-10-11T17:54:53.706Z,15.60
2022-10-11T17:57:25.853Z,17.80
2022-10-11T17:59:57.903Z,18.90
2022-10-11T18:02:30.241Z,17.70
2022-10-11T18:05:03.281Z,19.70
2022-10-11T18:07:36.345Z,21.80
2022-10-11T18:10:10.949Z,18.70
2022-10-11T18:12:42.658Z,16.80
2022-10-11T18:15:15.910Z,16.40
2022-10-11T18:17:48.976Z,17.10
2022-10-11T18:20:20.701Z,20.70
2022-10-11T18:22:54.218Z,18.60
2022-10-11T18:25:25.899Z,23.20
2022-10-11T18:27:57.887Z,20.90
2022-10-11T18:30:29.974Z,19.50
2022-10-11T18:33:01.736Z,20.90
2022-10-11T18:35:33.506Z,19.00
2022-10-11T18:38:06.021Z,22.60
2022-10-11T18:40:46.160Z,23.10
2022-10-11T18:43:18.735Z,20.50
2022-10-11T18:45:51.911Z,21.30
2022-10-11T18:48:23.538Z,22.20
2022-10-11T18:51:05.049Z,21.10
2022-10-11T18:53:38.284Z,21.00
2022-10-11T18:56:12.169Z,19.30
2022-10-11T18:58:45.820Z,19.70
2022-10-11T19:01:20.425Z,19.90
2022-10-11T19:03:56.486Z,18.10
2022-10-11T19:06:30.301Z,20.00
2022-10-11T19:09:05.645Z,22.70
2022-10-11T19:11:37.447Z,20.90
2022-10-11T19:14:11.427Z,21.90
2022-10-11T19:16:46.352Z,21.90
2022-10-11T19:19:19.771Z,19.50
2022-10-11T19:21:53.636Z,21.60
2022-10-11T19:24:31.017Z,22.10
2022-10-11T19:27:05.179Z,22.60
2022-10-11T19:29:38.456Z,21.50
2022-10-11T19:32:13.803Z,23.60
2022-10-11T19:34:46.705Z,21.50
2022-10-11T19:39:50.799Z,22.70
2022-10-11T19:44:55.748Z,26.30
2022-10-11T19:49:59.555Z,26.90
2022-10-11T19:55:04.119Z,30.60
2022-10-11T20:00:07.580Z,31.50
2022-10-11T20:02:40.401Z,33.70
2022-10-11T20:05:12.647Z,31.00
2022-10-11T20:07:45.683Z,32.40
2022-10-11T20:10:19.489Z,34.40
2022-10-11T20:12:51.904Z,29.90
2022-10-11T20:15:24.984Z,32.00
2022-10-11T20:17:57.355Z,31.90
2022-10-11T20:20:30.263Z,32.40
2022-10-11T20:23:02.566Z,32.10
2022-10-11T20:25:35.121Z,31.10
2022-10-11T20:28:08.713Z,32.10
2022-10-11T20:30:46.196Z,30.00
2022-10-11T20:33:18.358Z,30.40
2022-10-11T20:36:02.722Z,32.00
2022-10-11T20:38:38.033Z,29.30
2022-10-11T20:41:12.384Z,31.20
2022-10-11T20:43:46.651Z,33.40
2022-10-11T20:46:20.306Z,32.70
2022-10-11T20:48:58.859Z,33.90
2022-10-11T20:51:35.126Z,32.60
2022-10-11T20:54:07.609Z,34.10
2022-10-11T20:56:39.739Z,35.40
2022-10-11T20:59:12.621Z,33.10
2022-10-11T21:01:46.117Z,33.60
2022-10-11T21:04:21.450Z,35.80
2022-10-11T21:06:54.345Z,33.50
2022-10-11T21:09:26.604Z,36.90
2022-10-11T21:12:01.821Z,38.40
2022-10-11T21:14:33.917Z,33.50
2022-10-11T21:17:08.415Z,34.40
2022-10-11T21:19:41.456Z,33.30
2022-10-11T21:22:13.598Z,33.20
2022-10-11T21:24:45.604Z,34.20
2022-10-11T21:27:17.341Z,33.40
2022-10-11T21:29:49.115Z,33.40
2022-10-11T21:32:21.665Z,33.50
2022-10-11T21:34:53.722Z,33.70
2022-10-11T21:37:27.913Z,25.10
2022-10-11T21:39:59.987Z,36.40
2022-10-11T21:42:32.594Z,36.20
2022-10-11T21:45:05.746Z,36.30
2022-10-11T21:47:39.227Z,34.90
2022-10-11T21:50:11.625Z,36.70
2022-10-11T21:52:43.282Z,29.10
2022-10-11T21:55:15.024Z,36.40
2022-10-11T21:57:47.410Z,35.90
2022-10-11T22:00:19.377Z,34.30
2022-10-11T22:02:52.524Z,34.50
2022-10-11T22:05:24.568Z,33.40
2022-10-11T22:07:56.207Z,24.80
2022-10-11T22:10:29.093Z,33.60
2022-10-11T22:15:33.741Z,32.60
2022-10-11T22:18:06.089Z,33.50
2022-10-11T22:20:37.796Z,33.20
2022-10-11T22:23:09.638Z,33.70
2022-10-11T22:25:42.134Z,34.20
2022-10-11T22:30:45.884Z,32.80
2022-10-11T22:33:19.597Z,34.50
2022-10-11T22:35:56.316Z,34.70
2022-10-11T22:38:28.861Z,35.50
2022-10-11T22:43:32.102Z,34.10
2022-10-11T22:46:04.069Z,35.50
2022-10-11T22:48:35.762Z,33.90
2022-10-11T22:51:07.596Z,36.20
2022-10-11T22:53:39.520Z,34.00
2022-10-11T22:56:11.938Z,36.40
2022-10-11T22:58:43.621Z,35.90
2022-10-11T23:01:17.381Z,37.70
2022-10-11T23:03:52.381Z,38.30
2022-10-11T23:06:24.700Z,38.80
2022-10-11T23:08:57.362Z,43.10
2022-10-11T23:11:31.099Z,38.20
2022-10-11T23:14:04.134Z,39.80
2022-10-11T23:16:36.186Z,40.00
2022-10-11T23:19:08.032Z,39.20
2022-10-11T23:21:40.363Z,28.20
2022-10-11T23:24:12.997Z,37.70
2022-10-11T23:26:45.292Z,39.00
2022-10-11T23:29:17.383Z,38.00
2022-10-11T23:31:49.175Z,37.90
2022-10-11T23:34:22.536Z,39.40
2022-10-11T23:36:54.345Z,37.30
2022-10-11T23:39:26.135Z,34.60
2022-10-11T23:41:58.945Z,37.80
2022-10-11T23:47:00.927Z,35.30
2022-10-11T23:49:32.875Z,34.60
2022-10-11T23:52:05.296Z,26.80
2022-10-11T23:54:36.985Z,34.80
2022-10-11T23:57:09.066Z,34.80
2022-10-11T23:59:41.278Z,34.10
